sensor_id;sensor_type;location;lat;lon;timestamp;pressure;altitude;pressure_sealevel;temperature;humidity
79347;BME280;68815;48.810;44.482;2023-07-28T00:01:24;99712;;;23.9;48.9
79347;BME280;68815;48.810;44.482;2023-07-28T00:04:25;99707;;;23.9;48.9
79347;BME280;68815;48.810;44.482;2023-07-28T00:07:27;99713;;;23.8;49.1
79347;BME280;68815;48.810;44.482;2023-07-28T00:10:28;99711;;;23.7;49.5
79347;BME280;68815;48.810;44.482;2023-07-28T00:13:30;99718;;;23.7;49.3
79347;BME280;68815;48.810;44.482;2023-07-28T00:16:32;99716;;;23.8;49.2
79347;BME280;68815;48.810;44.482;2023-07-28T00:19:33;99715;;;23.7;49.8
79347;BME280;68815;48.810;44.482;2023-07-28T00:22:35;99718;;;23.7;49.5
79347;BME280;68815;48.810;44.482;2023-07-28T00:25:37;99721;;;23.7;49.5
79347;BME280;68815;48.810;44.482;2023-07-28T00:28:38;99722;;;23.6;49.8
79347;BME280;68815;48.810;44.482;2023-07-28T00:31:40;99723;;;23.4;50.5
79347;BME280;68815;48.810;44.482;2023-07-28T00:34:42;99717;;;23.4;50.5
79347;BME280;68815;48.810;44.482;2023-07-28T00:37:43;99726;;;23.3;50.7
79347;BME280;68815;48.810;44.482;2023-07-28T00:40:45;99722;;;23.3;50.8
79347;BME280;68815;48.810;44.482;2023-07-28T00:43:47;99729;;;23.3;51
79347;BME280;68815;48.810;44.482;2023-07-28T00:46:48;99732;;;23.3;51
79347;BME280;68815;48.810;44.482;2023-07-28T00:49:50;99735;;;23.3;51.1
79347;BME280;68815;48.810;44.482;2023-07-28T00:52:52;99732;;;23.2;51.3
79347;BME280;68815;48.810;44.482;2023-07-28T00:55:55;99729;;;23.1;51.9
79347;BME280;68815;48.810;44.482;2023-07-28T00:58:57;99732;;;22.9;52.3
79347;BME280;68815;48.810;44.482;2023-07-28T01:01:58;99729;;;22.9;52.4
79347;BME280;68815;48.810;44.482;2023-07-28T01:05:00;99732;;;22.7;52.9
79347;BME280;68815;48.810;44.482;2023-07-28T01:08:06;99734;;;22.7;53.3
79347;BME280;68815;48.810;44.482;2023-07-28T01:11:12;99729;;;22.7;53.5
79347;BME280;68815;48.810;44.482;2023-07-28T01:14:14;99735;;;22.7;53.5
79347;BME280;68815;48.810;44.482;2023-07-28T01:17:15;99728;;;22.5;54.2
79347;BME280;68815;48.810;44.482;2023-07-28T01:20:17;99730;;;22.4;54.5
79347;BME280;68815;48.810;44.482;2023-07-28T01:23:20;99733;;;22.4;54.5
79347;BME280;68815;48.810;44.482;2023-07-28T01:26:30;99729;;;22.4;54.9
79347;BME280;68815;48.810;44.482;2023-07-28T01:29:31;99732;;;22.5;54.4
79347;BME280;68815;48.810;44.482;2023-07-28T01:32:33;99733;;;22.4;54.8
79347;BME280;68815;48.810;44.482;2023-07-28T01:35:35;99734;;;22.5;54.4
79347;BME280;68815;48.810;44.482;2023-07-28T01:38:37;99730;;;22.4;54.6
79347;BME280;68815;48.810;44.482;2023-07-28T01:41:39;99736;;;22.4;54.9
79347;BME280;68815;48.810;44.482;2023-07-28T01:44:40;99729;;;22.5;54.8
79347;BME280;68815;48.810;44.482;2023-07-28T01:47:42;99730;;;22.4;55.1
79347;BME280;68815;48.810;44.482;2023-07-28T01:50:43;99737;;;22.5;54.7
79347;BME280;68815;48.810;44.482;2023-07-28T01:53:45;99733;;;22.4;55.1
79347;BME280;68815;48.810;44.482;2023-07-28T01:56:46;99735;;;22.5;54.7
79347;BME280;68815;48.810;44.482;2023-07-28T01:59:48;99734;;;22.7;54.5
79347;BME280;68815;48.810;44.482;2023-07-28T02:02:51;99741;;;22.5;55.1
79347;BME280;68815;48.810;44.482;2023-07-28T02:05:53;99734;;;22.7;54.6
79347;BME280;68815;48.810;44.482;2023-07-28T02:08:55;99737;;;22.7;54.7
79347;BME280;68815;48.810;44.482;2023-07-28T02:11:56;99736;;;22.9;54.1
79347;BME280;68815;48.810;44.482;2023-07-28T02:14:58;99736;;;23.1;54.1
79347;BME280;68815;48.810;44.482;2023-07-28T02:18:00;99736;;;23.2;53.6
79347;BME280;68815;48.810;44.482;2023-07-28T02:21:07;99741;;;23.4;53.4
79347;BME280;68815;48.810;44.482;2023-07-28T02:24:09;99739;;;23.6;52.9
79347;BME280;68815;48.810;44.482;2023-07-28T02:27:11;99738;;;23.7;52.6
79347;BME280;68815;48.810;44.482;2023-07-28T02:30:13;99742;;;23.8;52.5
79347;BME280;68815;48.810;44.482;2023-07-28T02:33:14;99745;;;23.8;52.5
79347;BME280;68815;48.810;44.482;2023-07-28T02:36:16;99749;;;24;52.1
79347;BME280;68815;48.810;44.482;2023-07-28T02:39:17;99749;;;24;51.8
79347;BME280;68815;48.810;44.482;2023-07-28T02:42:19;99751;;;23.8;52.7
79347;BME280;68815;48.810;44.482;2023-07-28T02:45:20;99750;;;23.9;52.6
79347;BME280;68815;48.810;44.482;2023-07-28T02:48:22;99749;;;24;52.6
79347;BME280;68815;48.810;44.482;2023-07-28T02:51:23;99742;;;24.2;50.7
79347;BME280;68815;48.810;44.482;2023-07-28T02:54:25;99745;;;24.2;51.9
79347;BME280;68815;48.810;44.482;2023-07-28T02:57:26;99743;;;24;52.7
79347;BME280;68815;48.810;44.482;2023-07-28T03:00:28;99742;;;24;53.1
79347;BME280;68815;48.810;44.482;2023-07-28T03:03:30;99742;;;23.9;53.4
79347;BME280;68815;48.810;44.482;2023-07-28T03:06:31;99744;;;24.1;53.1
79347;BME280;68815;48.810;44.482;2023-07-28T03:09:33;99746;;;24;53.1
79347;BME280;68815;48.810;44.482;2023-07-28T03:12:34;99735;;;24.2;52.5
79347;BME280;68815;48.810;44.482;2023-07-28T03:15:36;99741;;;24.5;52.3
79347;BME280;68815;48.810;44.482;2023-07-28T03:18:37;99741;;;24.6;51.8
79347;BME280;68815;48.810;44.482;2023-07-28T03:21:39;99743;;;24.8;51.2
79347;BME280;68815;48.810;44.482;2023-07-28T03:24:40;99741;;;25;51.3
79347;BME280;68815;48.810;44.482;2023-07-28T03:27:43;99739;;;25;51.2
79347;BME280;68815;48.810;44.482;2023-07-28T03:30:44;99741;;;25.1;51
79347;BME280;68815;48.810;44.482;2023-07-28T03:33:46;99741;;;24.9;51.9
79347;BME280;68815;48.810;44.482;2023-07-28T03:36:47;99742;;;24.9;51.5
79347;BME280;68815;48.810;44.482;2023-07-28T03:39:49;99733;;;25;52.3
79347;BME280;68815;48.810;44.482;2023-07-28T03:42:50;99739;;;25.5;51.1
79347;BME280;68815;48.810;44.482;2023-07-28T03:45:53;99732;;;25.5;50.6
79347;BME280;68815;48.810;44.482;2023-07-28T03:48:54;99730;;;25.6;50.2
79347;BME280;68815;48.810;44.482;2023-07-28T03:51:56;99731;;;25.4;50.7
79347;BME280;68815;48.810;44.482;2023-07-28T03:54:57;99731;;;25.6;50.2
79347;BME280;68815;48.810;44.482;2023-07-28T03:57:59;99733;;;25.7;50.2
79347;BME280;68815;48.810;44.482;2023-07-28T04:01:00;99733;;;26.1;49.1
79347;BME280;68815;48.810;44.482;2023-07-28T04:04:02;99736;;;26.1;48.9
79347;BME280;68815;48.810;44.482;2023-07-28T04:07:04;99741;;;26;49.3
79347;BME280;68815;48.810;44.482;2023-07-28T04:10:06;99732;;;26.3;48.5
79347;BME280;68815;48.810;44.482;2023-07-28T04:13:08;99740;;;26.8;47.2
79347;BME280;68815;48.810;44.482;2023-07-28T04:16:10;99738;;;26.5;47.3
79347;BME280;68815;48.810;44.482;2023-07-28T04:19:11;99741;;;26.6;47.2
79347;BME280;68815;48.810;44.482;2023-07-28T04:22:12;99746;;;27.2;46.5
79347;BME280;68815;48.810;44.482;2023-07-28T04:25:14;99742;;;27.7;45.6
79347;BME280;68815;48.810;44.482;2023-07-28T04:28:16;99738;;;27.5;45.4
79347;BME280;68815;48.810;44.482;2023-07-28T04:31:18;99729;;;27.4;44.9
79347;BME280;68815;48.810;44.482;2023-07-28T04:34:19;99722;;;27.7;44.1
79347;BME280;68815;48.810;44.482;2023-07-28T04:37:21;99717;;;28.2;42.7
79347;BME280;68815;48.810;44.482;2023-07-28T04:40:22;99712;;;28.1;43.2
79347;BME280;68815;48.810;44.482;2023-07-28T04:43:24;99710;;;28.5;42.5
79347;BME280;68815;48.810;44.482;2023-07-28T04:46:26;99716;;;28.2;42.3
79347;BME280;68815;48.810;44.482;2023-07-28T04:49:27;99660;;;28.3;42.3
79347;BME280;68815;48.810;44.482;2023-07-28T04:52:29;99704;;;28.7;42.1
79347;BME280;68815;48.810;44.482;2023-07-28T04:55:30;99696;;;28.5;41.8
79347;BME280;68815;48.810;44.482;2023-07-28T04:58:32;99694;;;28.6;41.8
79347;BME280;68815;48.810;44.482;2023-07-28T05:01:34;99692;;;28.5;42.1
79347;BME280;68815;48.810;44.482;2023-07-28T05:04:36;99695;;;29;41
79347;BME280;68815;48.810;44.482;2023-07-28T05:07:38;99707;;;29.6;39.7
79347;BME280;68815;48.810;44.482;2023-07-28T05:10:41;99693;;;29.4;40.4
79347;BME280;68815;48.810;44.482;2023-07-28T05:13:42;99693;;;29.2;40.4
79347;BME280;68815;48.810;44.482;2023-07-28T05:16:44;99692;;;29.7;39.4
79347;BME280;68815;48.810;44.482;2023-07-28T05:19:46;99692;;;29.5;40.3
79347;BME280;68815;48.810;44.482;2023-07-28T05:22:48;99693;;;30.5;38.4
79347;BME280;68815;48.810;44.482;2023-07-28T05:25:49;99687;;;31;37.8
79347;BME280;68815;48.810;44.482;2023-07-28T05:28:51;99683;;;30.7;38.1
79347;BME280;68815;48.810;44.482;2023-07-28T05:31:53;99688;;;31.8;36.9
79347;BME280;68815;48.810;44.482;2023-07-28T05:34:55;99685;;;31.9;35.5
79347;BME280;68815;48.810;44.482;2023-07-28T05:37:56;99673;;;31.4;35.8
79347;BME280;68815;48.810;44.482;2023-07-28T05:40:58;99672;;;31.6;35.8
79347;BME280;68815;48.810;44.482;2023-07-28T05:44:00;99672;;;32.7;34.3
79347;BME280;68815;48.810;44.482;2023-07-28T05:47:01;99669;;;32.3;33.9
79347;BME280;68815;48.810;44.482;2023-07-28T05:50:04;99672;;;32.7;32.9
79347;BME280;68815;48.810;44.482;2023-07-28T05:53:05;99672;;;32.2;34.1
79347;BME280;68815;48.810;44.482;2023-07-28T05:56:07;99664;;;33.1;33.6
79347;BME280;68815;48.810;44.482;2023-07-28T05:59:08;99665;;;32.8;33.6
79347;BME280;68815;48.810;44.482;2023-07-28T06:02:10;99655;;;32.8;33.3
79347;BME280;68815;48.810;44.482;2023-07-28T06:05:12;99647;;;33.2;33
79347;BME280;68815;48.810;44.482;2023-07-28T06:08:13;99643;;;32.7;33.7
79347;BME280;68815;48.810;44.482;2023-07-28T06:11:15;99634;;;31.5;35.7
79347;BME280;68815;48.810;44.482;2023-07-28T06:14:16;99630;;;31.4;36.5
79347;BME280;68815;48.810;44.482;2023-07-28T06:17:18;99623;;;31.2;36.5
79347;BME280;68815;48.810;44.482;2023-07-28T06:20:19;99617;;;31.4;36
79347;BME280;68815;48.810;44.482;2023-07-28T06:23:21;99610;;;31.1;37.2
79347;BME280;68815;48.810;44.482;2023-07-28T06:26:22;99608;;;31.2;36.4
79347;BME280;68815;48.810;44.482;2023-07-28T06:29:24;99602;;;31.6;35.8
79347;BME280;68815;48.810;44.482;2023-07-28T06:32:26;99594;;;30.9;37.2
79347;BME280;68815;48.810;44.482;2023-07-28T06:35:27;99584;;;31.6;36.4
79347;BME280;68815;48.810;44.482;2023-07-28T06:38:29;99584;;;31.5;35.9
79347;BME280;68815;48.810;44.482;2023-07-28T06:41:30;99592;;;31.7;34.4
79347;BME280;68815;48.810;44.482;2023-07-28T06:44:32;99575;;;31.7;34.7
79347;BME280;68815;48.810;44.482;2023-07-28T06:47:33;99581;;;32.1;34.4
79347;BME280;68815;48.810;44.482;2023-07-28T06:50:35;99569;;;32.1;34.6
79347;BME280;68815;48.810;44.482;2023-07-28T06:53:37;99570;;;32.5;34.2
79347;BME280;68815;48.810;44.482;2023-07-28T06:56:38;99567;;;32.2;34.1
79347;BME280;68815;48.810;44.482;2023-07-28T06:59:39;99557;;;32.6;33.6
79347;BME280;68815;48.810;44.482;2023-07-28T07:02:41;99568;;;33;33.6
79347;BME280;68815;48.810;44.482;2023-07-28T07:05:43;99547;;;32.3;32.7
79347;BME280;68815;48.810;44.482;2023-07-28T07:08:44;99539;;;32.1;33.1
79347;BME280;68815;48.810;44.482;2023-07-28T07:11:46;99531;;;32.4;33.2
79347;BME280;68815;48.810;44.482;2023-07-28T07:14:47;99528;;;32.3;32.6
79347;BME280;68815;48.810;44.482;2023-07-28T07:17:49;99518;;;32.3;32.3
79347;BME280;68815;48.810;44.482;2023-07-28T07:20:50;99517;;;32.4;32.2
79347;BME280;68815;48.810;44.482;2023-07-28T07:23:52;99514;;;32.5;32
79347;BME280;68815;48.810;44.482;2023-07-28T07:26:53;99513;;;32.8;31.6
79347;BME280;68815;48.810;44.482;2023-07-28T07:29:55;99512;;;32.8;30.7
79347;BME280;68815;48.810;44.482;2023-07-28T07:32:56;99499;;;32.9;31.1
79347;BME280;68815;48.810;44.482;2023-07-28T07:35:58;99490;;;33.1;31
79347;BME280;68815;48.810;44.482;2023-07-28T07:39:00;99492;;;32.8;30.8
79347;BME280;68815;48.810;44.482;2023-07-28T07:42:02;99480;;;33;31
79347;BME280;68815;48.810;44.482;2023-07-28T07:45:04;99490;;;33.1;30
79347;BME280;68815;48.810;44.482;2023-07-28T07:48:05;99474;;;33.4;30.7
79347;BME280;68815;48.810;44.482;2023-07-28T07:51:07;99466;;;33.4;30.7
79347;BME280;68815;48.810;44.482;2023-07-28T07:54:09;99471;;;33.2;30.6
79347;BME280;68815;48.810;44.482;2023-07-28T07:57:10;99461;;;33.5;30.4
79347;BME280;68815;48.810;44.482;2023-07-28T08:00:12;99457;;;33;30.8
79347;BME280;68815;48.810;44.482;2023-07-28T08:03:14;99453;;;33;30.7
79347;BME280;68815;48.810;44.482;2023-07-28T08:06:16;99443;;;33.1;30.9
79347;BME280;68815;48.810;44.482;2023-07-28T08:09:17;99452;;;33;30.5
79347;BME280;68815;48.810;44.482;2023-07-28T08:12:19;99443;;;33;30.2
79347;BME280;68815;48.810;44.482;2023-07-28T08:15:21;99420;;;33.1;28.6
79347;BME280;68815;48.810;44.482;2023-07-28T08:18:22;99425;;;33.1;29.2
79347;BME280;68815;48.810;44.482;2023-07-28T08:21:24;99429;;;33.2;27.2
79347;BME280;68815;48.810;44.482;2023-07-28T08:24:26;99418;;;33.1;27.6
79347;BME280;68815;48.810;44.482;2023-07-28T08:27:27;99413;;;33.2;27.7
79347;BME280;68815;48.810;44.482;2023-07-28T08:30:28;99415;;;33.4;27.4
79347;BME280;68815;48.810;44.482;2023-07-28T08:33:30;99407;;;33.3;27.8
79347;BME280;68815;48.810;44.482;2023-07-28T08:36:33;99406;;;33.3;27.7
79347;BME280;68815;48.810;44.482;2023-07-28T08:39:34;99409;;;33.3;27.8
79347;BME280;68815;48.810;44.482;2023-07-28T08:42:37;99400;;;33.5;27.7
79347;BME280;68815;48.810;44.482;2023-07-28T08:45:38;99385;;;33.5;27.3
79347;BME280;68815;48.810;44.482;2023-07-28T08:48:40;99364;;;33.6;27.6
79347;BME280;68815;48.810;44.482;2023-07-28T08:51:42;99376;;;33.8;27.4
79347;BME280;68815;48.810;44.482;2023-07-28T08:54:43;99378;;;33.7;26.4
79347;BME280;68815;48.810;44.482;2023-07-28T08:57:45;99380;;;33.7;26.1
79347;BME280;68815;48.810;44.482;2023-07-28T09:00:47;99367;;;33.6;26.4
79347;BME280;68815;48.810;44.482;2023-07-28T09:03:49;99354;;;33.8;26.6
79347;BME280;68815;48.810;44.482;2023-07-28T09:06:51;99368;;;33.7;26
79347;BME280;68815;48.810;44.482;2023-07-28T09:09:59;99367;;;33.9;26
79347;BME280;68815;48.810;44.482;2023-07-28T09:13:02;99339;;;34;26.3
79347;BME280;68815;48.810;44.482;2023-07-28T09:16:04;99340;;;34.2;25
79347;BME280;68815;48.810;44.482;2023-07-28T09:19:06;99330;;;34;24.8
79347;BME280;68815;48.810;44.482;2023-07-28T09:22:08;99334;;;34.1;24.1
79347;BME280;68815;48.810;44.482;2023-07-28T09:25:14;99315;;;34.4;24.6
79347;BME280;68815;48.810;44.482;2023-07-28T09:28:17;99335;;;34.2;24.9
79347;BME280;68815;48.810;44.482;2023-07-28T09:31:28;99333;;;34.2;24.5
79347;BME280;68815;48.810;44.482;2023-07-28T09:34:30;99323;;;34.2;24.2
79347;BME280;68815;48.810;44.482;2023-07-28T09:37:32;99340;;;34.2;24.2
79347;BME280;68815;48.810;44.482;2023-07-28T09:40:34;99337;;;34.1;24.9
79347;BME280;68815;48.810;44.482;2023-07-28T09:43:35;99295;;;34.4;24.5
79347;BME280;68815;48.810;44.482;2023-07-28T09:46:49;99333;;;34.4;24.2
79347;BME280;68815;48.810;44.482;2023-07-28T09:49:54;99341;;;34.3;24.1
79347;BME280;68815;48.810;44.482;2023-07-28T09:53:02;99332;;;34.5;23.7
79347;BME280;68815;48.810;44.482;2023-07-28T09:56:04;99325;;;34.5;23.2
79347;BME280;68815;48.810;44.482;2023-07-28T09:59:11;99327;;;34.7;23.3
79347;BME280;68815;48.810;44.482;2023-07-28T10:02:14;99323;;;35;23.8
79347;BME280;68815;48.810;44.482;2023-07-28T10:05:16;99320;;;34.7;23.5
79347;BME280;68815;48.810;44.482;2023-07-28T10:08:18;99300;;;34.8;23.4
79347;BME280;68815;48.810;44.482;2023-07-28T10:11:20;99324;;;34.9;23.1
79347;BME280;68815;48.810;44.482;2023-07-28T10:14:25;99316;;;35;22.6
79347;BME280;68815;48.810;44.482;2023-07-28T10:17:31;99310;;;35.2;23.5
79347;BME280;68815;48.810;44.482;2023-07-28T10:20:35;99323;;;35.2;23.6
79347;BME280;68815;48.810;44.482;2023-07-28T10:23:39;99324;;;34.9;24.2
79347;BME280;68815;48.810;44.482;2023-07-28T10:26:41;99323;;;34.9;24.8
79347;BME280;68815;48.810;44.482;2023-07-28T10:29:55;99314;;;34.8;25
79347;BME280;68815;48.810;44.482;2023-07-28T10:32:58;99313;;;35;24.3
79347;BME280;68815;48.810;44.482;2023-07-28T10:35:59;99305;;;35;25
79347;BME280;68815;48.810;44.482;2023-07-28T10:39:14;99300;;;35.1;24.4
79347;BME280;68815;48.810;44.482;2023-07-28T10:42:15;99283;;;35;24.7
79347;BME280;68815;48.810;44.482;2023-07-28T10:45:17;99293;;;34.7;24.6
79347;BME280;68815;48.810;44.482;2023-07-28T10:48:19;99292;;;34.8;24.9
79347;BME280;68815;48.810;44.482;2023-07-28T10:51:21;99272;;;35;24
79347;BME280;68815;48.810;44.482;2023-07-28T10:54:23;99279;;;35.1;22.8
79347;BME280;68815;48.810;44.482;2023-07-28T10:57:25;99284;;;35.2;22.9
79347;BME280;68815;48.810;44.482;2023-07-28T11:00:26;99278;;;35.3;23.4
79347;BME280;68815;48.810;44.482;2023-07-28T11:03:28;99274;;;35.5;23.4
79347;BME280;68815;48.810;44.482;2023-07-28T11:06:30;99264;;;35.4;22.7
79347;BME280;68815;48.810;44.482;2023-07-28T11:09:32;99257;;;35.3;23.2
79347;BME280;68815;48.810;44.482;2023-07-28T11:12:33;99259;;;35.4;23.5
79347;BME280;68815;48.810;44.482;2023-07-28T11:15:35;99259;;;35.5;23.2
79347;BME280;68815;48.810;44.482;2023-07-28T11:18:37;99259;;;35.7;23.5
79347;BME280;68815;48.810;44.482;2023-07-28T11:21:39;99249;;;35.8;23
79347;BME280;68815;48.810;44.482;2023-07-28T11:24:41;99254;;;35.8;22.7
79347;BME280;68815;48.810;44.482;2023-07-28T11:27:43;99230;;;35.6;22.5
79347;BME280;68815;48.810;44.482;2023-07-28T11:30:46;99245;;;35.6;22.5
79347;BME280;68815;48.810;44.482;2023-07-28T11:33:47;99253;;;35.7;22.7
79347;BME280;68815;48.810;44.482;2023-07-28T11:36:49;99224;;;35.7;22.8
79347;BME280;68815;48.810;44.482;2023-07-28T11:39:52;99232;;;35.9;23.4
79347;BME280;68815;48.810;44.482;2023-07-28T11:42:55;99221;;;35.7;23
79347;BME280;68815;48.810;44.482;2023-07-28T11:45:57;99229;;;35.7;22.6
79347;BME280;68815;48.810;44.482;2023-07-28T11:49:06;99221;;;35.8;23
79347;BME280;68815;48.810;44.482;2023-07-28T11:52:08;99221;;;36;22.7
79347;BME280;68815;48.810;44.482;2023-07-28T11:55:09;99205;;;36;22.8
79347;BME280;68815;48.810;44.482;2023-07-28T11:58:11;99223;;;36.1;22.6
79347;BME280;68815;48.810;44.482;2023-07-28T12:01:13;99210;;;36;22.8
79347;BME280;68815;48.810;44.482;2023-07-28T12:04:23;99218;;;36;22.9
79347;BME280;68815;48.810;44.482;2023-07-28T12:07:29;99209;;;35.9;23.7
79347;BME280;68815;48.810;44.482;2023-07-28T12:10:32;99201;;;35.9;24.2
79347;BME280;68815;48.810;44.482;2023-07-28T12:13:48;99214;;;35.7;23.7
79347;BME280;68815;48.810;44.482;2023-07-28T12:16:50;99211;;;35.7;23.8
79347;BME280;68815;48.810;44.482;2023-07-28T12:19:55;99211;;;35.6;24
79347;BME280;68815;48.810;44.482;2023-07-28T12:22:56;99212;;;35.4;23.9
79347;BME280;68815;48.810;44.482;2023-07-28T12:25:58;99222;;;35.6;23.4
79347;BME280;68815;48.810;44.482;2023-07-28T12:28:59;99213;;;35.5;22.3
79347;BME280;68815;48.810;44.482;2023-07-28T12:32:01;99219;;;35.5;23.3
79347;BME280;68815;48.810;44.482;2023-07-28T12:35:02;99210;;;35.5;23.7
79347;BME280;68815;48.810;44.482;2023-07-28T12:38:06;99204;;;35.6;24.1
79347;BME280;68815;48.810;44.482;2023-07-28T12:41:08;99184;;;35.5;22.8
79347;BME280;68815;48.810;44.482;2023-07-28T12:44:09;99203;;;35.4;23
79347;BME280;68815;48.810;44.482;2023-07-28T12:47:11;99188;;;35.4;23.1
79347;BME280;68815;48.810;44.482;2023-07-28T12:50:12;99211;;;35.3;23.9
79347;BME280;68815;48.810;44.482;2023-07-28T12:53:15;99207;;;35.3;24.2
79347;BME280;68815;48.810;44.482;2023-07-28T12:56:17;99200;;;35.4;24.4
79347;BME280;68815;48.810;44.482;2023-07-28T12:59:18;99189;;;35.5;24.8
79347;BME280;68815;48.810;44.482;2023-07-28T13:02:20;99193;;;35.5;25.6
79347;BME280;68815;48.810;44.482;2023-07-28T13:05:22;99176;;;35.5;25.6
79347;BME280;68815;48.810;44.482;2023-07-28T13:08:23;99179;;;35.4;25.6
79347;BME280;68815;48.810;44.482;2023-07-28T13:11:25;99180;;;35.3;25.8
79347;BME280;68815;48.810;44.482;2023-07-28T13:14:27;99181;;;35.1;25.8
79347;BME280;68815;48.810;44.482;2023-07-28T13:17:29;99177;;;35;26
79347;BME280;68815;48.810;44.482;2023-07-28T13:20:30;99169;;;34.9;26.2
79347;BME280;68815;48.810;44.482;2023-07-28T13:23:32;99172;;;34.8;26.1
79347;BME280;68815;48.810;44.482;2023-07-28T13:26:33;99171;;;34.8;27
79347;BME280;68815;48.810;44.482;2023-07-28T13:29:35;99168;;;34.8;26.1
79347;BME280;68815;48.810;44.482;2023-07-28T13:32:37;99167;;;34.6;26.5
79347;BME280;68815;48.810;44.482;2023-07-28T13:35:38;99161;;;34.7;26.4
79347;BME280;68815;48.810;44.482;2023-07-28T13:38:40;99163;;;34.6;26.7
79347;BME280;68815;48.810;44.482;2023-07-28T13:41:41;99162;;;34.6;27
79347;BME280;68815;48.810;44.482;2023-07-28T13:44:43;99162;;;34.6;27.4
79347;BME280;68815;48.810;44.482;2023-07-28T13:47:44;99153;;;34.6;27.4
79347;BME280;68815;48.810;44.482;2023-07-28T13:50:46;99157;;;34.6;27.6
79347;BME280;68815;48.810;44.482;2023-07-28T13:53:48;99148;;;34.6;27.4
79347;BME280;68815;48.810;44.482;2023-07-28T13:56:49;99146;;;34.6;27.3
79347;BME280;68815;48.810;44.482;2023-07-28T13:59:51;99137;;;34.5;26.7
79347;BME280;68815;48.810;44.482;2023-07-28T14:02:52;99140;;;34.5;26.9
79347;BME280;68815;48.810;44.482;2023-07-28T14:05:54;99142;;;34.4;27.7
79347;BME280;68815;48.810;44.482;2023-07-28T14:08:55;99144;;;34.3;27.8
79347;BME280;68815;48.810;44.482;2023-07-28T14:11:57;99143;;;34.1;28
79347;BME280;68815;48.810;44.482;2023-07-28T14:14:59;99157;;;34;28
79347;BME280;68815;48.810;44.482;2023-07-28T14:18:01;99165;;;34;27.8
79347;BME280;68815;48.810;44.482;2023-07-28T14:21:03;99159;;;33.9;28
79347;BME280;68815;48.810;44.482;2023-07-28T14:24:06;99154;;;33.9;28.3
79347;BME280;68815;48.810;44.482;2023-07-28T14:27:07;99154;;;33.8;28.5
79347;BME280;68815;48.810;44.482;2023-07-28T14:30:09;99147;;;33.7;28.6
79347;BME280;68815;48.810;44.482;2023-07-28T14:33:11;99146;;;33.7;28.8
79347;BME280;68815;48.810;44.482;2023-07-28T14:36:13;99145;;;33.6;28.9
79347;BME280;68815;48.810;44.482;2023-07-28T14:39:14;99151;;;33.5;30.1
79347;BME280;68815;48.810;44.482;2023-07-28T14:42:16;99156;;;33.4;32.2
79347;BME280;68815;48.810;44.482;2023-07-28T14:45:18;99155;;;33.2;33.3
79347;BME280;68815;48.810;44.482;2023-07-28T14:48:19;99162;;;33.1;34.2
79347;BME280;68815;48.810;44.482;2023-07-28T14:51:21;99168;;;32.9;34.7
79347;BME280;68815;48.810;44.482;2023-07-28T14:54:24;99165;;;32.8;35.2
79347;BME280;68815;48.810;44.482;2023-07-28T14:57:26;99157;;;32.6;35.5
79347;BME280;68815;48.810;44.482;2023-07-28T15:00:27;99153;;;32.5;35.6
79347;BME280;68815;48.810;44.482;2023-07-28T15:03:29;99144;;;32.5;35.4
79347;BME280;68815;48.810;44.482;2023-07-28T15:06:32;99133;;;32.4;35.1
79347;BME280;68815;48.810;44.482;2023-07-28T15:09:33;99116;;;32.3;35.9
79347;BME280;68815;48.810;44.482;2023-07-28T15:12:35;99128;;;32.1;36.4
79347;BME280;68815;48.810;44.482;2023-07-28T15:15:37;99140;;;31.9;38.2
79347;BME280;68815;48.810;44.482;2023-07-28T15:18:39;99164;;;31.7;38.9
79347;BME280;68815;48.810;44.482;2023-07-28T15:21:41;99157;;;31.5;39.1
79347;BME280;68815;48.810;44.482;2023-07-28T15:24:42;99150;;;31.2;39.8
79347;BME280;68815;48.810;44.482;2023-07-28T15:27:44;99160;;;31;40.9
79347;BME280;68815;48.810;44.482;2023-07-28T15:30:46;99178;;;30.8;43.2
79347;BME280;68815;48.810;44.482;2023-07-28T15:33:47;99189;;;30.4;46.7
79347;BME280;68815;48.810;44.482;2023-07-28T15:36:48;99198;;;29.6;48
79347;BME280;68815;48.810;44.482;2023-07-28T15:39:50;99188;;;29.3;45.9
79347;BME280;68815;48.810;44.482;2023-07-28T15:42:52;99190;;;29;45.1
79347;BME280;68815;48.810;44.482;2023-07-28T15:45:54;99203;;;29;45.6
79347;BME280;68815;48.810;44.482;2023-07-28T15:48:55;99201;;;28.8;46.4
79347;BME280;68815;48.810;44.482;2023-07-28T15:51:57;99206;;;28.6;45.8
79347;BME280;68815;48.810;44.482;2023-07-28T15:54:58;99217;;;28.5;46.7
79347;BME280;68815;48.810;44.482;2023-07-28T15:58:00;99212;;;28.3;48.3
79347;BME280;68815;48.810;44.482;2023-07-28T16:01:02;99218;;;28.2;50.1
79347;BME280;68815;48.810;44.482;2023-07-28T16:04:03;99243;;;28;50.9
79347;BME280;68815;48.810;44.482;2023-07-28T16:07:05;99257;;;27.9;51.1
79347;BME280;68815;48.810;44.482;2023-07-28T16:10:07;99280;;;27.7;51.8
79347;BME280;68815;48.810;44.482;2023-07-28T16:13:10;99283;;;27.6;52.4
79347;BME280;68815;48.810;44.482;2023-07-28T16:16:11;99285;;;27.7;51.1
79347;BME280;68815;48.810;44.482;2023-07-28T16:19:13;99275;;;27.6;51.8
79347;BME280;68815;48.810;44.482;2023-07-28T16:22:16;99271;;;27.5;53.1
79347;BME280;68815;48.810;44.482;2023-07-28T16:25:18;99272;;;27.4;54.2
79347;BME280;68815;48.810;44.482;2023-07-28T16:28:21;99282;;;27.4;54.5
79347;BME280;68815;48.810;44.482;2023-07-28T16:31:22;99299;;;27.6;53.9
79347;BME280;68815;48.810;44.482;2023-07-28T16:34:24;99331;;;27.6;52.7
79347;BME280;68815;48.810;44.482;2023-07-28T16:37:26;99364;;;27.4;52
79347;BME280;68815;48.810;44.482;2023-07-28T16:40:28;99396;;;27.4;50.3
79347;BME280;68815;48.810;44.482;2023-07-28T16:43:30;99407;;;27.4;50.3
79347;BME280;68815;48.810;44.482;2023-07-28T16:46:31;99417;;;27.3;49.9
79347;BME280;68815;48.810;44.482;2023-07-28T16:49:33;99411;;;27.2;49.1
79347;BME280;68815;48.810;44.482;2023-07-28T16:52:35;99435;;;27.2;48.6
79347;BME280;68815;48.810;44.482;2023-07-28T16:55:36;99455;;;27.1;47.7
79347;BME280;68815;48.810;44.482;2023-07-28T16:58:37;99489;;;27.2;47.1
79347;BME280;68815;48.810;44.482;2023-07-28T17:01:39;99490;;;27.4;47
79347;BME280;68815;48.810;44.482;2023-07-28T17:04:40;99485;;;27.3;47.7